• Join FlightAware (Why Join?)
  • Login
  • US Flag 
01:59AM EST


 

Airport Tracker/Info


-or-


 

Live Flight TrackerFlight Track Log ✈ TAM3904 ✈ 24-Jul-2013 ✈ SBSP / CGH - SBRJ / SDU

Flight Track Log - Related Links

Times and Time Zones

All times are in EDT time to prevent confusion due to time zone crossing. See the TAM3904 flight status page for this flight to view local times or setup timezone preferences in your user account.

Time Position Orientation Groundspeed Altitude Reporting Facility
EDT Latitude Longitude Course Direction KTS MPH feet Rate Location/Type
06:37AM -23.4418 -45.7130 78° East  Level Estimated
06:38AM -23.4284 -45.6457 78° East  Level Estimated
06:39AM -23.4149 -45.5785 78° East  Level Estimated
06:40AM -23.4014 -45.5114 78° East  Level Estimated
06:41AM -23.3879 -45.4442 78° East  Level Estimated
06:42AM -23.3744 -45.3770 78° East  Level Estimated
06:43AM -23.3608 -45.3099 78° East  Level Estimated
06:44AM -23.3472 -45.2428 78° East  Level Estimated
06:45AM -23.3336 -45.1756 78° East  Level Estimated
06:46AM -23.3199 -45.1085 78° East  Level Estimated
06:47AM -23.3062 -45.0415 77° East  Level Estimated
06:48AM -23.2925 -44.9744 77° East  Level Estimated
06:49AM -23.2788 -44.9073 77° East  Level Estimated
06:50AM -23.2650 -44.8403 77° East  Level Estimated
06:51AM -23.2512 -44.7732 77° East  Level Estimated
06:52AM -23.2374 -44.7062 77° East  Level Estimated
06:53AM -23.2236 -44.6392 77° East  Level Estimated
06:54AM -23.2097 -44.5722 77° East  Level Estimated
06:55AM -23.1958 -44.5052 77° East  Level Estimated
06:56AM -23.1818 -44.4383 77° East  Level Estimated
06:57AM -23.1679 -44.3713 77° East  Level Estimated
06:58AM -23.1539 -44.3044 77° East  Level Estimated
06:59AM -23.1399 -44.2375 77° East  Level Estimated
07:00AM -23.1258 -44.1706 77° East  Level Estimated
07:01AM -23.1117 -44.1037 77° East  Level Estimated
07:02AM -23.0976 -44.0368 77° East  Level Estimated
07:03AM -23.0835 -43.9699 77° East  Level Estimated
07:04AM -23.0693 -43.9031 77° East  Level Estimated
07:05AM -23.0551 -43.8362 77° East  Level Estimated
07:06AM -23.0409 -43.7694 77° East  Level Estimated
07:07AM -23.0266 -43.7026 77° East  Level Estimated
07:08AM -23.0124 -43.6358 77° East  Level Estimated
07:09AM -22.9981 -43.5690 77° East  Level Estimated
07:10AM -22.9837 -43.5022 77° East  Level Estimated
07:11AM -22.9694 -43.4355 77° East  Level Estimated
07:12AM -22.9550 -43.3688 77° East  Level Estimated
07:13AM -22.9406 -43.3020 77° East  Level Estimated
07:14AM -22.9261 -43.2353 77° East  Level Estimated
07:15AM -22.9116 -43.1686 77° East  Level Estimated
07:16AM -22.9105 -43.1631 77° East  Level Estimated
07:17AM -22.9105 -43.1631 250° West  Level Estimated
07:18AM -22.9105 -43.1631 250° West  Level Estimated
07:19AM -22.9105 -43.1631 250° West  Level Estimated
07:20AM -22.9105 -43.1631 250° West  Level Estimated
07:21AM -22.9105 -43.1631 250° West  Level Estimated
07:22AM -22.9105 -43.1631 250° West  Level Estimated
07:23AM -22.9105 -43.1631 250° West  Level Estimated
07:24AM -22.9105 -43.1631 250° West  Level Estimated
07:25AM -22.9105 -43.1631 250° West  Level Estimated
07:26AM -22.9105 -43.1631 250° West  Level Estimated
07:27AM -22.9105 -43.1631 250° West  Level Estimated
07:28AM -22.9105 -43.1631 250° West  Level Estimated
07:29AM -22.9105 -43.1631 250° West  Level Estimated
07:30AM -22.9105 -43.1631 250° West  Level Estimated
07:31AM -22.9105 -43.1631 250° West  Level Estimated